sensor_id;sensor_type;location;lat;lon;timestamp;pressure;altitude;pressure_sealevel;temperature;humidity
16120;BME280;12670;53.502;10.252;2022-09-09T00:01:29;100483.97;;;16.22;100.00
16120;BME280;12670;53.502;10.252;2022-09-09T00:04:37;100490.16;;;16.35;100.00
16120;BME280;12670;53.502;10.252;2022-09-09T00:07:43;100494.16;;;16.42;100.00
16120;BME280;12670;53.502;10.252;2022-09-09T00:10:51;100488.44;;;16.47;100.00
16120;BME280;12670;53.502;10.252;2022-09-09T00:13:58;100486.75;;;16.46;100.00
16120;BME280;12670;53.502;10.252;2022-09-09T00:17:09;100485.69;;;16.48;100.00
16120;BME280;12670;53.502;10.252;2022-09-09T00:20:16;100488.03;;;16.53;100.00
16120;BME280;12670;53.502;10.252;2022-09-09T00:23:25;100484.41;;;16.54;100.00
16120;BME280;12670;53.502;10.252;2022-09-09T00:26:32;100490.06;;;16.62;100.00
16120;BME280;12670;53.502;10.252;2022-09-09T00:29:43;100483.00;;;16.61;100.00
16120;BME280;12670;53.502;10.252;2022-09-09T00:32:47;100479.78;;;16.56;100.00
16120;BME280;12670;53.502;10.252;2022-09-09T00:35:56;100484.84;;;16.48;100.00
16120;BME280;12670;53.502;10.252;2022-09-09T00:39:00;100483.09;;;16.47;100.00
16120;BME280;12670;53.502;10.252;2022-09-09T00:42:13;100487.59;;;16.59;100.00
16120;BME280;12670;53.502;10.252;2022-09-09T00:45:27;100485.16;;;16.43;100.00
16120;BME280;12670;53.502;10.252;2022-09-09T00:48:39;100482.91;;;16.50;100.00
16120;BME280;12670;53.502;10.252;2022-09-09T00:51:55;100481.28;;;16.60;100.00
16120;BME280;12670;53.502;10.252;2022-09-09T00:55:07;100478.19;;;16.41;100.00
16120;BME280;12670;53.502;10.252;2022-09-09T00:58:12;100474.97;;;16.61;100.00
16120;BME280;12670;53.502;10.252;2022-09-09T01:01:15;100478.38;;;16.63;100.00
16120;BME280;12670;53.502;10.252;2022-09-09T01:04:25;100472.56;;;16.69;100.00
16120;BME280;12670;53.502;10.252;2022-09-09T01:07:33;100471.50;;;16.59;100.00
16120;BME280;12670;53.502;10.252;2022-09-09T01:10:40;100473.88;;;16.64;100.00
16120;BME280;12670;53.502;10.252;2022-09-09T01:13:49;100471.56;;;16.72;100.00
16120;BME280;12670;53.502;10.252;2022-09-09T01:16:58;100474.13;;;16.73;100.00
16120;BME280;12670;53.502;10.252;2022-09-09T01:20:09;100471.97;;;16.78;100.00
16120;BME280;12670;53.502;10.252;2022-09-09T01:23:26;100468.09;;;16.83;100.00
16120;BME280;12670;53.502;10.252;2022-09-09T01:26:32;100468.53;;;16.76;100.00
16120;BME280;12670;53.502;10.252;2022-09-09T01:29:36;100467.06;;;16.72;100.00
16120;BME280;12670;53.502;10.252;2022-09-09T01:32:42;100471.44;;;16.73;100.00
16120;BME280;12670;53.502;10.252;2022-09-09T01:35:50;100471.09;;;16.65;100.00
16120;BME280;12670;53.502;10.252;2022-09-09T01:38:55;100473.25;;;16.60;100.00
16120;BME280;12670;53.502;10.252;2022-09-09T01:41:59;100470.34;;;16.63;100.00
16120;BME280;12670;53.502;10.252;2022-09-09T01:45:03;100465.09;;;16.62;100.00
16120;BME280;12670;53.502;10.252;2022-09-09T01:48:06;100464.69;;;16.55;100.00
16120;BME280;12670;53.502;10.252;2022-09-09T01:51:09;100470.16;;;16.53;100.00
16120;BME280;12670;53.502;10.252;2022-09-09T01:54:12;100457.63;;;16.54;100.00
16120;BME280;12670;53.502;10.252;2022-09-09T01:57:20;100470.03;;;16.55;100.00
16120;BME280;12670;53.502;10.252;2022-09-09T02:00:25;100477.84;;;16.58;100.00
16120;BME280;12670;53.502;10.252;2022-09-09T02:03:28;100473.25;;;16.60;100.00
16120;BME280;12670;53.502;10.252;2022-09-09T02:06:36;100472.91;;;16.52;100.00
16120;BME280;12670;53.502;10.252;2022-09-09T02:09:41;100464.16;;;16.50;100.00
16120;BME280;12670;53.502;10.252;2022-09-09T02:12:50;100469.28;;;16.53;100.00
16120;BME280;12670;53.502;10.252;2022-09-09T02:15:58;100474.13;;;16.48;100.00
16120;BME280;12670;53.502;10.252;2022-09-09T02:19:06;100470.91;;;16.56;100.00
16120;BME280;12670;53.502;10.252;2022-09-09T02:22:12;100469.50;;;16.50;100.00
16120;BME280;12670;53.502;10.252;2022-09-09T02:25:17;100477.75;;;16.47;100.00
16120;BME280;12670;53.502;10.252;2022-09-09T02:28:25;100472.63;;;16.31;100.00
16120;BME280;12670;53.502;10.252;2022-09-09T02:31:29;100464.25;;;16.36;100.00
16120;BME280;12670;53.502;10.252;2022-09-09T02:34:36;100469.22;;;16.42;100.00
16120;BME280;12670;53.502;10.252;2022-09-09T02:37:42;100472.63;;;16.44;100.00
16120;BME280;12670;53.502;10.252;2022-09-09T02:40:47;100472.63;;;16.18;100.00
16120;BME280;12670;53.502;10.252;2022-09-09T02:43:51;100466.19;;;16.34;100.00
16120;BME280;12670;53.502;10.252;2022-09-09T02:47:07;100464.06;;;16.39;100.00
16120;BME280;12670;53.502;10.252;2022-09-09T02:50:17;100451.50;;;16.39;100.00
16120;BME280;12670;53.502;10.252;2022-09-09T02:53:24;100455.69;;;16.43;100.00
16120;BME280;12670;53.502;10.252;2022-09-09T02:56:33;100462.88;;;16.43;100.00
16120;BME280;12670;53.502;10.252;2022-09-09T02:59:43;100468.31;;;16.41;100.00
16120;BME280;12670;53.502;10.252;2022-09-09T03:02:46;100471.88;;;16.42;100.00
16120;BME280;12670;53.502;10.252;2022-09-09T03:05:48;100463.81;;;16.04;100.00
16120;BME280;12670;53.502;10.252;2022-09-09T03:08:51;100468.25;;;16.30;100.00
16120;BME280;12670;53.502;10.252;2022-09-09T03:11:53;100468.13;;;16.32;100.00
16120;BME280;12670;53.502;10.252;2022-09-09T03:14:58;100474.03;;;16.37;100.00
16120;BME280;12670;53.502;10.252;2022-09-09T03:18:01;100469.84;;;16.33;100.00
16120;BME280;12670;53.502;10.252;2022-09-09T03:21:04;100474.44;;;16.31;100.00
16120;BME280;12670;53.502;10.252;2022-09-09T03:24:06;100472.63;;;16.18;100.00
16120;BME280;12670;53.502;10.252;2022-09-09T03:27:09;100480.13;;;16.26;100.00
16120;BME280;12670;53.502;10.252;2022-09-09T03:30:13;100470.81;;;16.32;100.00
16120;BME280;12670;53.502;10.252;2022-09-09T03:33:16;100475.38;;;16.17;100.00
16120;BME280;12670;53.502;10.252;2022-09-09T03:36:19;100473.91;;;16.25;100.00
16120;BME280;12670;53.502;10.252;2022-09-09T03:39:21;100469.59;;;16.23;100.00
16120;BME280;12670;53.502;10.252;2022-09-09T03:42:30;100469.72;;;16.21;100.00
16120;BME280;12670;53.502;10.252;2022-09-09T03:45:35;100468.56;;;16.25;100.00
16120;BME280;12670;53.502;10.252;2022-09-09T03:48:37;100476.59;;;16.25;100.00
16120;BME280;12670;53.502;10.252;2022-09-09T03:51:40;100472.19;;;16.24;100.00
16120;BME280;12670;53.502;10.252;2022-09-09T03:54:42;100480.97;;;16.14;100.00
16120;BME280;12670;53.502;10.252;2022-09-09T03:57:45;100478.38;;;16.12;100.00
16120;BME280;12670;53.502;10.252;2022-09-09T04:00:54;100476.59;;;16.13;100.00
16120;BME280;12670;53.502;10.252;2022-09-09T04:03:57;100475.59;;;16.01;100.00
16120;BME280;12670;53.502;10.252;2022-09-09T04:07:00;100487.25;;;16.00;100.00
16120;BME280;12670;53.502;10.252;2022-09-09T04:10:03;100483.72;;;15.87;100.00
16120;BME280;12670;53.502;10.252;2022-09-09T04:13:06;100481.47;;;15.93;100.00
16120;BME280;12670;53.502;10.252;2022-09-09T04:16:11;100485.41;;;15.88;100.00
16120;BME280;12670;53.502;10.252;2022-09-09T04:19:14;100484.25;;;15.92;100.00
16120;BME280;12670;53.502;10.252;2022-09-09T04:22:17;100493.88;;;15.94;100.00
16120;BME280;12670;53.502;10.252;2022-09-09T04:25:19;100489.78;;;15.89;100.00
16120;BME280;12670;53.502;10.252;2022-09-09T04:28:23;100488.63;;;15.80;100.00
16120;BME280;12670;53.502;10.252;2022-09-09T04:31:28;100494.22;;;15.90;100.00
16120;BME280;12670;53.502;10.252;2022-09-09T04:34:30;100495.16;;;15.89;100.00
16120;BME280;12670;53.502;10.252;2022-09-09T04:37:34;100494.81;;;15.81;100.00
16120;BME280;12670;53.502;10.252;2022-09-09T04:40:36;100503.63;;;15.95;100.00
16120;BME280;12670;53.502;10.252;2022-09-09T04:43:44;100505.34;;;15.96;100.00
16120;BME280;12670;53.502;10.252;2022-09-09T04:46:48;100495.38;;;15.98;100.00
16120;BME280;12670;53.502;10.252;2022-09-09T04:49:50;100500.00;;;15.96;100.00
16120;BME280;12670;53.502;10.252;2022-09-09T04:52:55;100503.09;;;16.03;100.00
16120;BME280;12670;53.502;10.252;2022-09-09T04:56:02;100505.38;;;16.09;100.00
16120;BME280;12670;53.502;10.252;2022-09-09T04:59:05;100501.59;;;16.12;100.00
16120;BME280;12670;53.502;10.252;2022-09-09T05:02:09;100511.16;;;16.16;100.00
16120;BME280;12670;53.502;10.252;2022-09-09T05:05:12;100507.63;;;16.15;100.00
16120;BME280;12670;53.502;10.252;2022-09-09T05:08:14;100502.69;;;16.22;100.00
16120;BME280;12670;53.502;10.252;2022-09-09T05:11:18;100508.91;;;16.22;100.00
16120;BME280;12670;53.502;10.252;2022-09-09T05:14:21;100500.88;;;16.22;100.00
16120;BME280;12670;53.502;10.252;2022-09-09T05:17:26;100507.84;;;16.25;100.00
16120;BME280;12670;53.502;10.252;2022-09-09T05:20:29;100513.53;;;16.20;100.00
16120;BME280;12670;53.502;10.252;2022-09-09T05:23:32;100514.16;;;16.24;100.00
16120;BME280;12670;53.502;10.252;2022-09-09T05:26:35;100515.88;;;16.25;100.00
16120;BME280;12670;53.502;10.252;2022-09-09T05:29:38;100524.00;;;16.23;100.00
16120;BME280;12670;53.502;10.252;2022-09-09T05:32:44;100516.50;;;16.29;100.00
16120;BME280;12670;53.502;10.252;2022-09-09T05:35:46;100513.09;;;16.26;100.00
16120;BME280;12670;53.502;10.252;2022-09-09T05:38:50;100514.81;;;16.27;100.00
16120;BME280;12670;53.502;10.252;2022-09-09T05:41:54;100524.97;;;16.22;100.00
16120;BME280;12670;53.502;10.252;2022-09-09T05:44:58;100523.13;;;16.23;100.00
16120;BME280;12670;53.502;10.252;2022-09-09T05:48:02;100531.53;;;16.31;100.00
16120;BME280;12670;53.502;10.252;2022-09-09T05:51:06;100529.91;;;16.29;100.00
16120;BME280;12670;53.502;10.252;2022-09-09T05:54:09;100534.94;;;16.33;100.00
16120;BME280;12670;53.502;10.252;2022-09-09T05:57:12;100532.69;;;16.40;100.00
16120;BME280;12670;53.502;10.252;2022-09-09T06:00:14;100543.22;;;16.43;100.00
16120;BME280;12670;53.502;10.252;2022-09-09T06:03:19;100543.50;;;16.51;100.00
16120;BME280;12670;53.502;10.252;2022-09-09T06:06:25;100551.25;;;16.56;100.00
16120;BME280;12670;53.502;10.252;2022-09-09T06:09:28;100554.66;;;16.45;100.00
16120;BME280;12670;53.502;10.252;2022-09-09T06:12:31;100550.38;;;16.55;100.00
16120;BME280;12670;53.502;10.252;2022-09-09T06:15:34;100550.69;;;16.63;100.00
16120;BME280;12670;53.502;10.252;2022-09-09T06:18:38;100560.66;;;16.48;100.00
16120;BME280;12670;53.502;10.252;2022-09-09T06:21:41;100566.22;;;16.58;100.00
16120;BME280;12670;53.502;10.252;2022-09-09T06:24:43;100556.91;;;16.51;100.00
16120;BME280;12670;53.502;10.252;2022-09-09T06:27:48;100567.31;;;16.43;100.00
16120;BME280;12670;53.502;10.252;2022-09-09T06:30:57;100564.66;;;16.03;100.00
16120;BME280;12670;53.502;10.252;2022-09-09T06:34:01;100563.97;;;16.26;100.00
16120;BME280;12670;53.502;10.252;2022-09-09T06:37:04;100565.03;;;16.37;100.00
16120;BME280;12670;53.502;10.252;2022-09-09T06:40:08;100569.00;;;16.31;100.00
16120;BME280;12670;53.502;10.252;2022-09-09T06:43:11;100562.25;;;16.25;100.00
16120;BME280;12670;53.502;10.252;2022-09-09T06:46:16;100570.28;;;16.38;100.00
16120;BME280;12670;53.502;10.252;2022-09-09T06:49:21;100567.72;;;16.49;100.00
16120;BME280;12670;53.502;10.252;2022-09-09T06:52:23;100573.19;;;16.48;100.00
16120;BME280;12670;53.502;10.252;2022-09-09T06:55:26;100566.22;;;16.58;100.00
16120;BME280;12670;53.502;10.252;2022-09-09T06:58:29;100561.53;;;16.74;100.00
16120;BME280;12670;53.502;10.252;2022-09-09T07:01:34;100569.00;;;16.44;100.00
16120;BME280;12670;53.502;10.252;2022-09-09T07:04:39;100560.69;;;16.74;100.00
16120;BME280;12670;53.502;10.252;2022-09-09T07:07:41;100562.19;;;16.91;100.00
16120;BME280;12670;53.502;10.252;2022-09-09T07:10:44;100557.34;;;16.70;100.00
16120;BME280;12670;53.502;10.252;2022-09-09T07:13:47;100556.09;;;16.89;100.00
16120;BME280;12670;53.502;10.252;2022-09-09T07:16:49;100570.31;;;16.76;100.00
16120;BME280;12670;53.502;10.252;2022-09-09T07:19:56;100564.81;;;17.16;100.00
16120;BME280;12670;53.502;10.252;2022-09-09T07:22:58;100570.69;;;17.21;100.00
16120;BME280;12670;53.502;10.252;2022-09-09T07:26:01;100570.97;;;16.93;100.00
16120;BME280;12670;53.502;10.252;2022-09-09T07:29:04;100572.75;;;17.30;100.00
16120;BME280;12670;53.502;10.252;2022-09-09T07:32:06;100581.84;;;17.28;100.00
16120;BME280;12670;53.502;10.252;2022-09-09T07:35:10;100575.25;;;16.95;100.00
16120;BME280;12670;53.502;10.252;2022-09-09T07:38:13;100576.81;;;17.23;100.00
16120;BME280;12670;53.502;10.252;2022-09-09T07:41:18;100576.88;;;17.47;100.00
16120;BME280;12670;53.502;10.252;2022-09-09T07:44:22;100576.09;;;17.45;100.00
16120;BME280;12670;53.502;10.252;2022-09-09T07:47:25;100592.72;;;17.50;100.00
16120;BME280;12670;53.502;10.252;2022-09-09T07:50:29;100592.78;;;17.38;100.00
16120;BME280;12670;53.502;10.252;2022-09-09T07:53:32;100593.50;;;17.76;100.00
16120;BME280;12670;53.502;10.252;2022-09-09T07:56:36;100598.66;;;17.79;100.00
16120;BME280;12670;53.502;10.252;2022-09-09T07:59:40;100599.59;;;17.91;100.00
16120;BME280;12670;53.502;10.252;2022-09-09T08:02:43;100600.50;;;18.03;100.00
16120;BME280;12670;53.502;10.252;2022-09-09T08:05:47;100593.97;;;18.18;100.00
16120;BME280;12670;53.502;10.252;2022-09-09T08:08:50;100603.78;;;18.30;100.00
16120;BME280;12670;53.502;10.252;2022-09-09T08:11:53;100599.78;;;18.36;100.00
16120;BME280;12670;53.502;10.252;2022-09-09T08:14:57;100594.63;;;18.33;100.00
16120;BME280;12670;53.502;10.252;2022-09-09T08:18:00;100609.91;;;18.44;100.00
16120;BME280;12670;53.502;10.252;2022-09-09T08:21:10;100606.13;;;18.11;100.00
16120;BME280;12670;53.502;10.252;2022-09-09T08:24:14;100606.63;;;18.16;100.00
16120;BME280;12670;53.502;10.252;2022-09-09T08:27:16;100614.09;;;17.89;100.00
16120;BME280;12670;53.502;10.252;2022-09-09T08:30:19;100613.19;;;18.01;100.00
16120;BME280;12670;53.502;10.252;2022-09-09T08:33:23;100622.09;;;17.77;100.00
16120;BME280;12670;53.502;10.252;2022-09-09T08:36:29;100623.16;;;17.75;100.00
16120;BME280;12670;53.502;10.252;2022-09-09T08:39:34;100617.00;;;18.09;100.00
16120;BME280;12670;53.502;10.252;2022-09-09T08:42:40;100615.09;;;17.99;100.00
16120;BME280;12670;53.502;10.252;2022-09-09T08:45:55;100617.38;;;18.16;100.00
16120;BME280;12670;53.502;10.252;2022-09-09T08:49:05;100620.56;;;18.21;100.00
16120;BME280;12670;53.502;10.252;2022-09-09T08:52:20;100621.88;;;18.39;100.00
16120;BME280;12670;53.502;10.252;2022-09-09T08:55:29;100622.16;;;18.48;100.00
16120;BME280;12670;53.502;10.252;2022-09-09T08:58:43;100617.72;;;18.35;100.00
16120;BME280;12670;53.502;10.252;2022-09-09T09:01:56;100617.72;;;18.35;100.00
16120;BME280;12670;53.502;10.252;2022-09-09T09:05:12;100624.78;;;18.36;100.00
16120;BME280;12670;53.502;10.252;2022-09-09T09:08:26;100637.06;;;18.63;100.00
16120;BME280;12670;53.502;10.252;2022-09-09T09:11:35;100631.66;;;18.98;100.00
16120;BME280;12670;53.502;10.252;2022-09-09T09:14:40;100635.00;;;19.02;100.00
16120;BME280;12670;53.502;10.252;2022-09-09T09:17:45;100640.75;;;19.31;100.00
16120;BME280;12670;53.502;10.252;2022-09-09T09:20:53;100638.50;;;20.24;100.00
16120;BME280;12670;53.502;10.252;2022-09-09T09:24:00;100631.81;;;20.39;100.00
16120;BME280;12670;53.502;10.252;2022-09-09T09:27:12;100643.13;;;20.65;94.49
16120;BME280;12670;53.502;10.252;2022-09-09T09:30:17;100644.03;;;20.43;98.45
16120;BME280;12670;53.502;10.252;2022-09-09T09:33:35;100647.66;;;20.65;98.53
16120;BME280;12670;53.502;10.252;2022-09-09T09:36:44;100649.34;;;20.66;92.29
16120;BME280;12670;53.502;10.252;2022-09-09T09:39:49;100644.44;;;20.39;94.21
16120;BME280;12670;53.502;10.252;2022-09-09T09:43:19;100636.47;;;20.48;99.55
16120;BME280;12670;53.502;10.252;2022-09-09T09:46:23;100636.53;;;20.58;100.00
16120;BME280;12670;53.502;10.252;2022-09-09T09:49:27;100633.38;;;20.53;100.00
16120;BME280;12670;53.502;10.252;2022-09-09T09:52:31;100636.06;;;21.56;92.00
16120;BME280;12670;53.502;10.252;2022-09-09T09:55:47;100629.53;;;22.47;88.23
16120;BME280;12670;53.502;10.252;2022-09-09T09:58:53;100636.91;;;22.94;87.94
16120;BME280;12670;53.502;10.252;2022-09-09T10:02:06;100641.84;;;21.82;86.40
16120;BME280;12670;53.502;10.252;2022-09-09T10:05:17;100641.16;;;21.49;93.11
16120;BME280;12670;53.502;10.252;2022-09-09T10:08:27;100645.16;;;20.73;90.00
16120;BME280;12670;53.502;10.252;2022-09-09T10:11:40;100647.38;;;20.68;91.07
16120;BME280;12670;53.502;10.252;2022-09-09T10:14:52;100639.31;;;20.98;92.94
16120;BME280;12670;53.502;10.252;2022-09-09T10:18:08;100643.91;;;23.24;85.59
16120;BME280;12670;53.502;10.252;2022-09-09T10:21:30;100637.22;;;22.42;85.44
16120;BME280;12670;53.502;10.252;2022-09-09T10:25:03;100642.63;;;24.90;78.51
16120;BME280;12670;53.502;10.252;2022-09-09T10:28:24;100633.63;;;24.63;77.48
16120;BME280;12670;53.502;10.252;2022-09-09T10:31:36;100630.97;;;24.71;74.53
16120;BME280;12670;53.502;10.252;2022-09-09T10:34:55;100636.00;;;23.03;77.39
16120;BME280;12670;53.502;10.252;2022-09-09T10:38:20;100633.78;;;22.50;84.90
16120;BME280;12670;53.502;10.252;2022-09-09T10:41:40;100630.09;;;22.22;83.21
16120;BME280;12670;53.502;10.252;2022-09-09T10:44:55;100624.69;;;22.22;86.03
16120;BME280;12670;53.502;10.252;2022-09-09T10:48:23;100620.28;;;22.21;81.69
16120;BME280;12670;53.502;10.252;2022-09-09T10:51:36;100634.88;;;22.86;81.29
16120;BME280;12670;53.502;10.252;2022-09-09T10:54:54;100624.59;;;23.46;78.56
16120;BME280;12670;53.502;10.252;2022-09-09T10:57:59;100625.38;;;23.84;78.35
16120;BME280;12670;53.502;10.252;2022-09-09T11:01:12;100625.19;;;23.40;77.39
16120;BME280;12670;53.502;10.252;2022-09-09T11:04:22;100620.06;;;22.80;83.45
16120;BME280;12670;53.502;10.252;2022-09-09T11:07:28;100621.00;;;22.42;83.56
16120;BME280;12670;53.502;10.252;2022-09-09T11:10:38;100611.31;;;22.20;86.13
16120;BME280;12670;53.502;10.252;2022-09-09T11:13:46;100610.19;;;22.23;83.48
16120;BME280;12670;53.502;10.252;2022-09-09T11:16:57;100614.16;;;22.38;81.20
16120;BME280;12670;53.502;10.252;2022-09-09T11:20:01;100607.91;;;22.28;85.96
16120;BME280;12670;53.502;10.252;2022-09-09T11:23:09;100609.03;;;22.16;83.36
16120;BME280;12670;53.502;10.252;2022-09-09T11:26:18;100615.72;;;22.70;78.80
16120;BME280;12670;53.502;10.252;2022-09-09T11:29:40;100615.97;;;24.59;80.03
16120;BME280;12670;53.502;10.252;2022-09-09T11:33:13;100622.31;;;25.54;67.97
16120;BME280;12670;53.502;10.252;2022-09-09T11:36:47;100623.13;;;25.12;71.41
16120;BME280;12670;53.502;10.252;2022-09-09T11:40:07;100624.13;;;24.41;74.06
16120;BME280;12670;53.502;10.252;2022-09-09T11:43:13;100625.78;;;23.61;74.39
16120;BME280;12670;53.502;10.252;2022-09-09T11:46:19;100627.50;;;22.69;77.32
16120;BME280;12670;53.502;10.252;2022-09-09T11:49:28;100621.13;;;22.50;83.79
16120;BME280;12670;53.502;10.252;2022-09-09T11:52:37;100628.94;;;22.05;81.83
16120;BME280;12670;53.502;10.252;2022-09-09T11:55:40;100627.91;;;21.96;86.48
16120;BME280;12670;53.502;10.252;2022-09-09T11:58:44;100636.84;;;21.77;88.68
16120;BME280;12670;53.502;10.252;2022-09-09T12:01:57;100629.91;;;21.94;91.90
16120;BME280;12670;53.502;10.252;2022-09-09T12:05:05;100634.09;;;22.18;94.11
16120;BME280;12670;53.502;10.252;2022-09-09T12:08:11;100633.22;;;22.37;94.02
16120;BME280;12670;53.502;10.252;2022-09-09T12:11:26;100635.19;;;23.67;91.43
16120;BME280;12670;53.502;10.252;2022-09-09T12:14:35;100643.94;;;23.51;86.80
16120;BME280;12670;53.502;10.252;2022-09-09T12:17:42;100622.34;;;23.04;86.59
16120;BME280;12670;53.502;10.252;2022-09-09T12:20:54;100625.22;;;22.74;90.52
16120;BME280;12670;53.502;10.252;2022-09-09T12:24:01;100624.84;;;22.20;91.04
16120;BME280;12670;53.502;10.252;2022-09-09T12:27:11;100626.22;;;21.95;92.07
16120;BME280;12670;53.502;10.252;2022-09-09T12:30:18;100634.84;;;21.79;91.51
16120;BME280;12670;53.502;10.252;2022-09-09T12:33:22;100640.81;;;21.64;92.06
16120;BME280;12670;53.502;10.252;2022-09-09T12:36:29;100639.91;;;21.53;93.96
16120;BME280;12670;53.502;10.252;2022-09-09T12:39:38;100645.50;;;21.31;94.85
16120;BME280;12670;53.502;10.252;2022-09-09T12:42:44;100645.75;;;21.59;97.33
16120;BME280;12670;53.502;10.252;2022-09-09T12:45:48;100638.63;;;21.58;97.97
16120;BME280;12670;53.502;10.252;2022-09-09T12:48:52;100624.22;;;21.97;92.11
16120;BME280;12670;53.502;10.252;2022-09-09T12:51:58;100620.41;;;22.39;85.39
16120;BME280;12670;53.502;10.252;2022-09-09T12:55:03;100615.81;;;22.78;82.62
16120;BME280;12670;53.502;10.252;2022-09-09T12:58:07;100628.34;;;22.79;83.35
16120;BME280;12670;53.502;10.252;2022-09-09T13:01:21;100627.75;;;23.04;86.54
16120;BME280;12670;53.502;10.252;2022-09-09T13:04:24;100629.06;;;23.92;83.18
16120;BME280;12670;53.502;10.252;2022-09-09T13:07:28;100625.09;;;23.87;80.72
16120;BME280;12670;53.502;10.252;2022-09-09T13:10:33;100623.38;;;23.31;82.75
16120;BME280;12670;53.502;10.252;2022-09-09T13:13:54;100633.09;;;23.24;84.93
16120;BME280;12670;53.502;10.252;2022-09-09T13:16:59;100636.63;;;22.87;81.51
16120;BME280;12670;53.502;10.252;2022-09-09T13:20:05;100620.13;;;22.32;87.45
16120;BME280;12670;53.502;10.252;2022-09-09T13:23:11;100628.06;;;22.04;86.06
16120;BME280;12670;53.502;10.252;2022-09-09T13:26:23;100619.53;;;21.90;86.87
16120;BME280;12670;53.502;10.252;2022-09-09T13:29:27;100628.56;;;21.60;86.89
16120;BME280;12670;53.502;10.252;2022-09-09T13:32:30;100643.66;;;21.72;87.43
16120;BME280;12670;53.502;10.252;2022-09-09T13:35:33;100650.69;;;21.53;88.53
16120;BME280;12670;53.502;10.252;2022-09-09T13:38:39;100659.66;;;21.54;92.20
16120;BME280;12670;53.502;10.252;2022-09-09T13:41:43;100666.22;;;21.31;90.38
16120;BME280;12670;53.502;10.252;2022-09-09T13:44:46;100665.84;;;21.35;90.21
16120;BME280;12670;53.502;10.252;2022-09-09T13:47:49;100656.28;;;21.31;93.15
16120;BME280;12670;53.502;10.252;2022-09-09T13:50:58;100670.69;;;21.20;98.81
16120;BME280;12670;53.502;10.252;2022-09-09T13:54:03;100671.16;;;20.63;96.06
16120;BME280;12670;53.502;10.252;2022-09-09T13:57:14;100669.53;;;20.39;99.05
16120;BME280;12670;53.502;10.252;2022-09-09T14:00:18;100670.53;;;20.38;99.34
16120;BME280;12670;53.502;10.252;2022-09-09T14:03:21;100675.09;;;19.94;100.00
16120;BME280;12670;53.502;10.252;2022-09-09T14:06:24;100663.38;;;19.73;100.00
16120;BME280;12670;53.502;10.252;2022-09-09T14:09:28;100655.31;;;19.62;100.00
16120;BME280;12670;53.502;10.252;2022-09-09T14:12:30;100649.41;;;19.34;100.00
16120;BME280;12670;53.502;10.252;2022-09-09T14:15:33;100652.09;;;19.34;100.00
16120;BME280;12670;53.502;10.252;2022-09-09T14:18:36;100646.59;;;19.02;100.00
16120;BME280;12670;53.502;10.252;2022-09-09T14:21:40;100642.56;;;19.08;100.00
16120;BME280;12670;53.502;10.252;2022-09-09T14:24:43;100646.59;;;19.13;100.00
16120;BME280;12670;53.502;10.252;2022-09-09T14:27:46;100641.34;;;19.12;100.00
16120;BME280;12670;53.502;10.252;2022-09-09T14:30:48;100633.84;;;18.82;100.00
16120;BME280;12670;53.502;10.252;2022-09-09T14:33:51;100638.50;;;18.80;100.00
16120;BME280;12670;53.502;10.252;2022-09-09T14:36:54;100640.19;;;18.81;100.00
16120;BME280;12670;53.502;10.252;2022-09-09T14:39:58;100638.13;;;18.73;100.00
16120;BME280;12670;53.502;10.252;2022-09-09T14:43:01;100645.19;;;18.74;100.00
16120;BME280;12670;53.502;10.252;2022-09-09T14:46:07;100640.94;;;18.72;100.00
16120;BME280;12670;53.502;10.252;2022-09-09T14:49:10;100641.78;;;18.72;100.00
16120;BME280;12670;53.502;10.252;2022-09-09T14:52:14;100651.69;;;18.72;100.00
16120;BME280;12670;53.502;10.252;2022-09-09T14:55:18;100652.88;;;18.68;100.00
16120;BME280;12670;53.502;10.252;2022-09-09T14:58:22;100669.78;;;18.57;100.00
16120;BME280;12670;53.502;10.252;2022-09-09T15:01:25;100676.78;;;18.59;100.00
16120;BME280;12670;53.502;10.252;2022-09-09T15:04:28;100667.88;;;18.59;100.00
16120;BME280;12670;53.502;10.252;2022-09-09T15:07:31;100663.44;;;18.58;100.00
16120;BME280;12670;53.502;10.252;2022-09-09T15:10:36;100657.13;;;18.59;100.00
16120;BME280;12670;53.502;10.252;2022-09-09T15:13:41;100656.22;;;18.58;100.00
16120;BME280;12670;53.502;10.252;2022-09-09T15:16:44;100648.75;;;18.51;100.00
16120;BME280;12670;53.502;10.252;2022-09-09T15:19:47;100639.97;;;18.49;100.00
16120;BME280;12670;53.502;10.252;2022-09-09T15:22:51;100636.63;;;18.34;100.00
16120;BME280;12670;53.502;10.252;2022-09-09T15:25:55;100632.09;;;18.34;100.00
16120;BME280;12670;53.502;10.252;2022-09-09T15:28:58;100631.63;;;18.29;100.00
16120;BME280;12670;53.502;10.252;2022-09-09T15:32:01;100626.34;;;18.28;100.00
16120;BME280;12670;53.502;10.252;2022-09-09T15:35:05;100617.22;;;18.30;100.00
16120;BME280;12670;53.502;10.252;2022-09-09T15:38:07;100615.03;;;18.35;100.00
16120;BME280;12670;53.502;10.252;2022-09-09T15:41:12;100609.28;;;18.40;100.00
16120;BME280;12670;53.502;10.252;2022-09-09T15:44:15;100616.03;;;18.46;100.00
16120;BME280;12670;53.502;10.252;2022-09-09T15:47:17;100627.00;;;18.43;100.00
16120;BME280;12670;53.502;10.252;2022-09-09T15:50:21;100627.16;;;18.52;100.00
16120;BME280;12670;53.502;10.252;2022-09-09T15:53:24;100621.44;;;18.57;100.00